createdAt,value
2023-03-12T00:00:20.796Z,5.80
2023-03-12T00:02:47.097Z,6.07
2023-03-12T00:05:13.657Z,6.75
2023-03-12T00:07:40.383Z,6.13
2023-03-12T00:10:06.699Z,5.25
2023-03-12T00:12:33.075Z,5.50
2023-03-12T00:14:59.524Z,5.85
2023-03-12T00:17:25.946Z,5.38
2023-03-12T00:19:52.312Z,5.85
2023-03-12T00:22:18.694Z,5.70
2023-03-12T00:24:45.023Z,5.10
2023-03-12T00:27:11.385Z,5.40
2023-03-12T00:29:37.708Z,5.28
2023-03-12T00:32:04.059Z,5.22
2023-03-12T00:34:30.507Z,5.20
2023-03-12T00:36:57.047Z,5.03
2023-03-12T00:39:23.428Z,5.43
2023-03-12T00:41:49.814Z,5.50
2023-03-12T00:44:16.362Z,5.60
2023-03-12T00:46:42.753Z,4.63
2023-03-12T00:49:09.368Z,5.32
2023-03-12T00:51:35.908Z,5.15
2023-03-12T00:54:02.268Z,4.70
2023-03-12T00:56:28.706Z,5.25
2023-03-12T00:58:55.012Z,5.07
2023-03-12T01:01:21.606Z,4.53
2023-03-12T01:03:48.316Z,4.13
2023-03-12T01:06:14.683Z,4.80
2023-03-12T01:08:41.107Z,4.82
2023-03-12T01:11:07.440Z,4.40
2023-03-12T01:13:34.187Z,4.32
2023-03-12T01:16:00.714Z,4.20
2023-03-12T01:18:27.529Z,4.22
2023-03-12T01:20:53.891Z,4.60
2023-03-12T01:23:20.339Z,4.35
2023-03-12T01:25:47.274Z,4.35
2023-03-12T01:28:13.652Z,3.70
2023-03-12T01:30:40.010Z,4.30
2023-03-12T01:33:06.529Z,4.57
2023-03-12T01:35:32.935Z,4.40
2023-03-12T01:37:59.408Z,4.50
2023-03-12T01:40:25.732Z,4.00
2023-03-12T01:42:52.273Z,3.85
2023-03-12T01:45:18.748Z,4.05
2023-03-12T01:47:45.298Z,3.97
2023-03-12T01:50:11.726Z,4.03
2023-03-12T01:52:38.141Z,4.10
2023-03-12T01:55:04.538Z,4.13
2023-03-12T01:57:30.946Z,3.55
2023-03-12T01:59:57.359Z,3.80
2023-03-12T02:02:23.728Z,4.15
2023-03-12T02:04:51.203Z,3.28
2023-03-12T02:07:18.239Z,3.50
2023-03-12T02:09:44.945Z,3.75
2023-03-12T02:12:11.341Z,3.28
2023-03-12T02:14:38.075Z,4.07
2023-03-12T02:17:04.946Z,3.33
2023-03-12T02:19:32.186Z,3.92
2023-03-12T02:21:59.510Z,3.83
2023-03-12T02:24:28.062Z,3.60
2023-03-12T02:26:54.433Z,3.22
2023-03-12T02:29:20.974Z,3.45
2023-03-12T02:31:47.336Z,3.83
2023-03-12T02:34:14.366Z,3.45
2023-03-12T02:36:41.333Z,3.47
2023-03-12T02:39:07.848Z,3.00
2023-03-12T02:41:34.262Z,3.35
2023-03-12T02:44:01.277Z,3.50
2023-03-12T02:46:27.658Z,3.03
2023-03-12T02:48:54.027Z,3.65
2023-03-12T02:51:20.336Z,3.00
2023-03-12T02:53:46.746Z,3.33
2023-03-12T02:56:13.158Z,3.75
2023-03-12T02:58:39.806Z,3.40
2023-03-12T03:01:06.305Z,2.97
2023-03-12T03:03:32.823Z,3.38
2023-03-12T03:05:59.192Z,3.15
2023-03-12T03:08:25.532Z,3.42
2023-03-12T03:10:52.049Z,3.20
2023-03-12T03:13:18.822Z,3.00
2023-03-12T03:15:45.621Z,2.90
2023-03-12T03:18:12.438Z,3.03
2023-03-12T03:20:39.685Z,2.85
2023-03-12T03:23:06.843Z,2.80
2023-03-12T03:25:33.223Z,2.60
2023-03-12T03:27:59.911Z,3.20
2023-03-12T03:30:26.267Z,3.17
2023-03-12T03:32:52.721Z,2.97
2023-03-12T03:35:19.630Z,2.60
2023-03-12T03:37:46.234Z,2.50
2023-03-12T03:40:12.764Z,3.05
2023-03-12T03:42:39.445Z,2.85
2023-03-12T03:45:05.846Z,2.90
2023-03-12T03:47:32.267Z,2.65
2023-03-12T03:49:59.251Z,2.88
2023-03-12T03:52:26.076Z,2.60
2023-03-12T03:54:52.560Z,2.85
2023-03-12T03:57:19.576Z,2.90
2023-03-12T03:59:46.531Z,3.05
2023-03-12T04:02:13.103Z,2.95
2023-03-12T04:04:41.863Z,2.67
2023-03-12T04:07:09.130Z,2.63
2023-03-12T04:09:36.482Z,2.92
2023-03-12T04:12:04.189Z,2.53
2023-03-12T04:14:31.351Z,2.70
2023-03-12T04:16:58.380Z,2.90
2023-03-12T04:19:25.202Z,2.50
2023-03-12T04:21:51.966Z,2.90
2023-03-12T04:24:19.562Z,2.45
2023-03-12T04:26:46.639Z,2.50
2023-03-12T04:29:13.946Z,3.30
2023-03-12T04:31:41.132Z,2.60
2023-03-12T04:34:07.907Z,2.90
2023-03-12T04:36:34.319Z,2.30
2023-03-12T04:39:01.125Z,2.75
2023-03-12T04:41:27.611Z,2.47
2023-03-12T04:43:54.422Z,2.80
2023-03-12T04:46:20.936Z,2.63
2023-03-12T04:48:47.302Z,2.47
2023-03-12T04:51:13.602Z,2.72
2023-03-12T04:53:40.096Z,3.13
2023-03-12T04:56:06.450Z,2.60
2023-03-12T04:58:34.815Z,2.38
2023-03-12T05:01:01.301Z,2.78
2023-03-12T05:03:28.073Z,2.45
2023-03-12T05:05:54.473Z,2.42
2023-03-12T05:08:20.847Z,2.45
2023-03-12T05:10:47.291Z,2.45
2023-03-12T05:13:13.695Z,2.42
2023-03-12T05:15:40.105Z,2.80
2023-03-12T05:18:06.718Z,2.53
2023-03-12T05:20:33.220Z,2.60
2023-03-12T05:23:00.018Z,2.40
2023-03-12T05:25:26.731Z,2.70
2023-03-12T05:27:53.123Z,2.40
2023-03-12T05:30:19.850Z,2.53
2023-03-12T05:32:46.392Z,2.33
2023-03-12T05:35:13.287Z,2.28
2023-03-12T05:37:39.956Z,2.40
2023-03-12T05:40:06.284Z,2.72
2023-03-12T05:42:33.041Z,1.98
2023-03-12T05:44:59.527Z,2.13
2023-03-12T05:47:26.181Z,2.30
2023-03-12T05:49:52.870Z,2.30
2023-03-12T05:52:19.306Z,2.50
2023-03-12T05:54:45.650Z,2.58
2023-03-12T05:57:11.955Z,2.17
2023-03-12T05:59:38.228Z,2.22
2023-03-12T06:02:04.764Z,2.13
2023-03-12T06:04:31.283Z,2.70
2023-03-12T06:06:57.687Z,2.38
2023-03-12T06:09:24.120Z,2.33
2023-03-12T06:11:50.668Z,2.08
2023-03-12T06:14:17.246Z,2.25
2023-03-12T06:16:43.717Z,2.25
2023-03-12T06:19:10.424Z,2.45
2023-03-12T06:21:36.922Z,2.10
2023-03-12T06:24:03.337Z,2.28
2023-03-12T06:26:29.767Z,1.92
2023-03-12T06:28:56.322Z,2.10
2023-03-12T06:31:22.892Z,2.40
2023-03-12T06:33:49.565Z,2.38
2023-03-12T06:36:16.151Z,2.47
2023-03-12T06:38:42.626Z,2.00
2023-03-12T06:41:08.954Z,2.17
2023-03-12T06:43:35.639Z,2.20
2023-03-12T06:46:02.149Z,2.22
2023-03-12T06:48:28.845Z,2.38
2023-03-12T06:50:55.154Z,1.98
2023-03-12T06:53:21.599Z,2.03
2023-03-12T06:55:48.002Z,2.00
2023-03-12T06:58:14.622Z,2.17
2023-03-12T07:00:40.974Z,2.25
2023-03-12T07:03:07.345Z,2.30
2023-03-12T07:05:33.730Z,1.98
2023-03-12T07:08:00.158Z,2.05
2023-03-12T07:10:27.003Z,1.92
2023-03-12T07:12:53.636Z,2.35
2023-03-12T07:15:20.018Z,2.60
2023-03-12T07:17:46.334Z,2.70
2023-03-12T07:20:12.759Z,2.53
2023-03-12T07:22:39.410Z,2.28
2023-03-12T07:25:05.874Z,1.92
2023-03-12T07:27:32.234Z,2.30
2023-03-12T07:29:58.904Z,2.15
2023-03-12T07:32:25.910Z,2.30
2023-03-12T07:34:52.392Z,2.35
2023-03-12T07:37:18.820Z,2.15
2023-03-12T07:39:45.310Z,2.10
2023-03-12T07:42:11.734Z,1.92
2023-03-12T07:44:38.297Z,2.10
2023-03-12T07:47:20.722Z,2.38
2023-03-12T07:49:49.731Z,2.17
2023-03-12T07:52:16.228Z,2.15
2023-03-12T07:54:42.741Z,2.42
2023-03-12T07:57:09.188Z,2.10
2023-03-12T07:59:35.853Z,2.30
2023-03-12T08:02:02.532Z,2.47
2023-03-12T08:04:29.277Z,2.20
2023-03-12T08:06:55.671Z,2.42
2023-03-12T08:09:22.263Z,1.90
2023-03-12T08:11:49.171Z,2.15
2023-03-12T08:14:15.555Z,2.45
2023-03-12T08:16:42.021Z,2.40
2023-03-12T08:19:08.508Z,2.30
2023-03-12T08:21:35.025Z,2.10
2023-03-12T08:24:01.719Z,2.22
2023-03-12T08:26:28.289Z,2.22
2023-03-12T08:28:54.618Z,2.58
2023-03-12T08:31:21.152Z,2.60
2023-03-12T08:33:47.569Z,2.40
2023-03-12T08:36:13.987Z,2.63
2023-03-12T08:38:40.560Z,2.30
2023-03-12T08:41:07.041Z,2.50
2023-03-12T08:43:33.494Z,2.30
2023-03-12T08:46:00.138Z,2.45
2023-03-12T08:48:26.561Z,2.20
2023-03-12T08:50:52.952Z,2.35
2023-03-12T08:53:19.250Z,2.17
2023-03-12T08:55:45.733Z,2.22
2023-03-12T08:58:12.198Z,2.40
2023-03-12T09:00:38.752Z,2.30
2023-03-12T09:03:05.517Z,2.63
2023-03-12T09:05:31.976Z,2.45
2023-03-12T09:07:58.572Z,2.42
2023-03-12T09:10:24.891Z,2.88
2023-03-12T09:12:51.962Z,2.20
2023-03-12T09:15:18.431Z,2.50
2023-03-12T09:17:44.789Z,2.30
2023-03-12T09:20:11.133Z,2.60
2023-03-12T09:22:37.741Z,2.38
2023-03-12T09:25:04.155Z,2.28
2023-03-12T09:27:30.473Z,3.00
2023-03-12T09:30:00.552Z,2.63
2023-03-12T09:32:27.941Z,2.72
2023-03-12T09:34:54.463Z,2.90
2023-03-12T09:37:23.651Z,2.28
2023-03-12T09:39:50.402Z,2.43
2023-03-12T09:42:17.305Z,2.80
2023-03-12T09:44:43.811Z,2.40
2023-03-12T09:47:10.335Z,2.35
2023-03-12T09:49:37.295Z,2.33
2023-03-12T09:52:03.661Z,2.63
2023-03-12T09:54:30.111Z,2.55
2023-03-12T09:56:56.738Z,2.42
2023-03-12T09:59:23.451Z,2.20
2023-03-12T10:01:50.079Z,2.67
2023-03-12T10:04:16.548Z,2.70
2023-03-12T10:06:43.021Z,2.22
2023-03-12T10:09:09.481Z,2.50
2023-03-12T10:11:35.785Z,2.88
2023-03-12T10:14:02.250Z,2.63
2023-03-12T10:16:28.958Z,2.60
2023-03-12T10:18:55.671Z,2.70
2023-03-12T10:21:22.046Z,2.50
2023-03-12T10:23:48.600Z,2.78
2023-03-12T10:26:15.015Z,2.30
2023-03-12T10:28:41.984Z,2.72
2023-03-12T10:31:08.494Z,2.20
2023-03-12T10:33:35.137Z,34.10
2023-03-12T10:36:01.511Z,154.50
2023-03-12T10:38:27.888Z,189.45
2023-03-12T10:40:54.414Z,159.35
2023-03-12T10:43:20.857Z,150.32
2023-03-12T10:45:47.202Z,137.98
2023-03-12T10:48:14.025Z,131.45
2023-03-12T10:50:40.392Z,121.38
2023-03-12T10:53:06.684Z,110.20
2023-03-12T10:55:33.219Z,104.53
2023-03-12T10:57:59.626Z,99.53
2023-03-12T11:00:26.174Z,92.80
2023-03-12T11:02:53.261Z,85.28
2023-03-12T11:05:19.893Z,72.90
2023-03-12T11:07:46.720Z,63.75
2023-03-12T11:10:14.357Z,59.05
2023-03-12T11:12:41.499Z,55.05
2023-03-12T11:15:07.907Z,52.13
2023-03-12T11:17:34.275Z,50.78
2023-03-12T11:20:00.720Z,48.20
2023-03-12T11:22:27.722Z,45.10
2023-03-12T11:24:54.301Z,42.70
2023-03-12T11:27:20.673Z,41.70
2023-03-12T11:29:47.225Z,37.67
2023-03-12T11:32:13.795Z,91.53
2023-03-12T11:34:40.336Z,194.55
2023-03-12T11:37:07.215Z,188.70
2023-03-12T11:39:33.660Z,173.00
2023-03-12T11:42:00.121Z,161.23
2023-03-12T11:44:26.938Z,150.07
2023-03-12T11:46:53.330Z,144.85
2023-03-12T11:49:20.069Z,152.85
2023-03-12T11:51:46.667Z,156.88
2023-03-12T11:54:13.339Z,148.48
2023-03-12T11:56:39.758Z,208.48
2023-03-12T11:59:06.065Z,246.27
2023-03-12T12:01:32.541Z,270.85
2023-03-12T12:03:59.112Z,252.05
2023-03-12T12:06:25.912Z,230.95
2023-03-12T12:08:52.602Z,216.75
2023-03-12T12:11:19.216Z,202.77
2023-03-12T12:13:45.824Z,191.50
2023-03-12T12:16:12.296Z,178.68
2023-03-12T12:18:39.412Z,155.98
2023-03-12T12:21:05.792Z,136.20
2023-03-12T12:23:32.253Z,123.15
2023-03-12T12:25:59.430Z,120.10
2023-03-12T12:28:26.228Z,113.20
2023-03-12T12:30:52.571Z,109.53
2023-03-12T12:33:19.524Z,104.05
2023-03-12T12:35:46.317Z,99.80
2023-03-12T12:38:13.459Z,95.15
2023-03-12T12:40:39.854Z,91.32
2023-03-12T12:43:06.508Z,87.40
2023-03-12T12:45:32.898Z,84.75
2023-03-12T12:47:59.780Z,155.25
2023-03-12T12:50:26.368Z,183.55
2023-03-12T12:52:52.836Z,204.73
2023-03-12T12:55:19.883Z,188.05
2023-03-12T12:57:46.262Z,170.88
2023-03-12T13:00:13.046Z,156.00
2023-03-12T13:02:39.880Z,143.88
2023-03-12T13:05:06.255Z,135.45
2023-03-12T13:07:32.595Z,131.75
2023-03-12T13:09:59.439Z,126.00
2023-03-12T13:12:26.329Z,120.80
2023-03-12T13:14:53.081Z,120.18
2023-03-12T13:17:19.440Z,112.78
2023-03-12T13:19:55.297Z,108.82
2023-03-12T13:22:25.823Z,166.52
2023-03-12T13:24:52.491Z,216.82
2023-03-12T13:27:18.856Z,225.63
2023-03-12T13:29:45.756Z,213.45
2023-03-12T13:32:12.088Z,177.00
2023-03-12T13:34:38.579Z,167.48
2023-03-12T13:37:04.939Z,159.70
2023-03-12T13:39:31.647Z,176.05
2023-03-12T13:41:58.530Z,299.85
2023-03-12T13:44:25.194Z,282.27
2023-03-12T13:46:51.623Z,280.63
2023-03-12T13:49:17.987Z,262.65
2023-03-12T13:51:44.383Z,257.67
2023-03-12T13:54:10.720Z,250.98
2023-03-12T13:56:37.047Z,248.40
2023-03-12T13:59:03.538Z,236.27
2023-03-12T14:01:30.038Z,236.25
2023-03-12T14:03:56.450Z,231.30
2023-03-12T14:06:22.968Z,227.85
2023-03-12T14:08:49.292Z,222.18
2023-03-12T14:11:16.163Z,222.32
2023-03-12T14:13:42.715Z,212.95
2023-03-12T14:16:09.435Z,210.43
2023-03-12T14:18:35.876Z,205.48
2023-03-12T14:21:02.691Z,204.57
2023-03-12T14:23:29.581Z,198.55
2023-03-12T14:25:56.476Z,199.70
2023-03-12T14:28:23.083Z,196.93
2023-03-12T14:30:49.643Z,191.23
2023-03-12T14:33:16.150Z,180.55
2023-03-12T14:35:43.255Z,179.07
2023-03-12T14:38:09.643Z,175.95
2023-03-12T14:40:36.037Z,173.85
2023-03-12T14:43:02.411Z,172.73
2023-03-12T14:45:29.143Z,169.43
2023-03-12T14:47:55.518Z,171.25
2023-03-12T14:50:22.007Z,165.95
2023-03-12T14:52:48.350Z,158.93
2023-03-12T14:55:15.202Z,157.73
2023-03-12T14:57:41.594Z,151.43
2023-03-12T15:00:07.993Z,150.70
2023-03-12T15:02:34.329Z,148.80
2023-03-12T15:05:00.929Z,144.68
2023-03-12T15:07:27.594Z,141.98
2023-03-12T15:09:53.959Z,142.02
2023-03-12T15:12:20.322Z,140.20
2023-03-12T15:14:46.892Z,140.55
2023-03-12T15:17:13.211Z,132.43
2023-03-12T15:19:39.951Z,134.93
2023-03-12T15:22:06.719Z,128.75
2023-03-12T15:24:33.116Z,128.60
2023-03-12T15:26:59.429Z,122.72
2023-03-12T15:29:26.215Z,125.78
2023-03-12T15:31:52.978Z,119.20
2023-03-12T15:34:19.825Z,116.93
2023-03-12T15:36:46.244Z,118.55
2023-03-12T15:39:12.814Z,115.13
2023-03-12T15:41:39.254Z,114.57
2023-03-12T15:44:05.818Z,112.13
2023-03-12T15:46:32.682Z,109.53
2023-03-12T15:48:59.432Z,110.10
2023-03-12T15:51:26.027Z,103.63
2023-03-12T15:53:52.744Z,104.53
2023-03-12T15:56:19.315Z,102.10
2023-03-12T15:58:45.663Z,101.30
2023-03-12T16:01:12.218Z,99.72
2023-03-12T16:03:39.308Z,95.95
2023-03-12T16:06:06.014Z,98.72
2023-03-12T16:08:32.666Z,93.78
2023-03-12T16:10:59.135Z,92.15
2023-03-12T16:13:25.615Z,90.82
2023-03-12T16:15:52.013Z,89.88
2023-03-12T16:18:18.379Z,85.88
2023-03-12T16:20:44.776Z,85.47
2023-03-12T16:23:11.768Z,83.60
2023-03-12T16:25:38.187Z,82.78
2023-03-12T16:28:04.958Z,81.90
2023-03-12T16:30:31.898Z,79.20
2023-03-12T16:32:58.444Z,76.10
2023-03-12T16:35:24.880Z,75.07
2023-03-12T16:37:51.524Z,74.88
2023-03-12T16:40:30.913Z,75.05
2023-03-12T16:43:00.221Z,74.38
2023-03-12T16:45:26.726Z,73.97
2023-03-12T16:47:53.117Z,68.40
2023-03-12T16:50:19.733Z,70.40
2023-03-12T16:52:46.100Z,67.50
2023-03-12T16:55:12.514Z,66.75
2023-03-12T16:57:39.416Z,66.90
2023-03-12T17:00:06.257Z,65.28
2023-03-12T17:02:32.921Z,64.40
2023-03-12T17:04:59.808Z,63.30
2023-03-12T17:07:26.159Z,61.70
2023-03-12T17:09:52.634Z,61.75
2023-03-12T17:12:19.491Z,59.67
2023-03-12T17:14:45.918Z,61.15
2023-03-12T17:17:12.750Z,56.78
2023-03-12T17:19:39.360Z,59.13
2023-03-12T17:22:05.767Z,55.92
2023-03-12T17:24:32.152Z,56.33
2023-03-12T17:26:58.894Z,54.72
2023-03-12T17:29:26.323Z,54.17
2023-03-12T17:31:52.841Z,51.72
2023-03-12T17:34:19.691Z,51.28
2023-03-12T17:36:46.217Z,49.50
2023-03-12T17:39:12.781Z,51.15
2023-03-12T17:41:39.161Z,47.50
2023-03-12T17:44:05.859Z,48.67
2023-03-12T17:46:32.280Z,47.10
2023-03-12T17:48:58.753Z,46.47
2023-03-12T17:51:25.240Z,45.17
2023-03-12T17:53:51.587Z,44.15
2023-03-12T17:56:18.004Z,45.22
2023-03-12T17:58:44.446Z,43.05
2023-03-12T18:01:12.649Z,42.45
2023-03-12T18:03:40.050Z,38.72
2023-03-12T18:06:07.673Z,38.97
2023-03-12T18:08:33.964Z,39.75
2023-03-12T18:11:00.397Z,38.83
2023-03-12T18:13:27.053Z,38.53
2023-03-12T18:15:53.455Z,36.50
2023-03-12T18:18:21.194Z,37.22
2023-03-12T18:20:47.600Z,37.63
2023-03-12T18:23:14.205Z,36.33
2023-03-12T18:25:40.723Z,36.50
2023-03-12T18:28:08.028Z,35.75
2023-03-12T18:30:34.610Z,35.65
2023-03-12T18:33:01.438Z,36.25
2023-03-12T18:35:27.896Z,34.33
2023-03-12T18:37:54.348Z,32.90
2023-03-12T18:40:21.263Z,31.80
2023-03-12T18:42:47.804Z,31.60
2023-03-12T18:45:14.179Z,33.03
2023-03-12T18:47:40.574Z,32.55
2023-03-12T18:50:07.445Z,31.02
2023-03-12T18:52:34.051Z,30.65
2023-03-12T18:55:00.455Z,30.10
2023-03-12T18:57:27.823Z,29.40
2023-03-12T18:59:54.225Z,28.60
2023-03-12T19:02:20.616Z,30.48
2023-03-12T19:04:47.047Z,27.35
2023-03-12T19:07:13.641Z,27.75
2023-03-12T19:09:40.174Z,28.40
2023-03-12T19:12:07.023Z,28.05
2023-03-12T19:14:33.401Z,27.80
2023-03-12T19:16:59.784Z,25.73
2023-03-12T19:19:26.769Z,25.50
2023-03-12T19:21:53.191Z,25.75
2023-03-12T19:24:19.600Z,25.05
2023-03-12T19:26:46.092Z,23.98
2023-03-12T19:29:13.101Z,24.45
2023-03-12T19:31:39.634Z,24.52
2023-03-12T19:34:06.098Z,24.05
2023-03-12T19:36:32.571Z,24.25
2023-03-12T19:39:02.386Z,23.45
2023-03-12T19:41:31.113Z,22.40
2023-03-12T19:43:57.988Z,22.13
2023-03-12T19:46:24.861Z,22.85
2023-03-12T19:48:51.746Z,22.50
2023-03-12T19:51:18.194Z,22.38
2023-03-12T19:53:44.841Z,22.15
2023-03-12T19:56:11.669Z,21.25
2023-03-12T19:58:38.270Z,20.48
2023-03-12T20:01:04.632Z,21.17
2023-03-12T20:03:31.021Z,20.45
2023-03-12T20:05:57.613Z,20.65
2023-03-12T20:08:24.031Z,19.75
2023-03-12T20:10:50.608Z,19.60
2023-03-12T20:13:17.795Z,18.77
2023-03-12T20:15:45.031Z,18.08
2023-03-12T20:18:11.426Z,18.98
2023-03-12T20:20:38.442Z,18.73
2023-03-12T20:23:04.907Z,17.92
2023-03-12T20:25:31.612Z,18.33
2023-03-12T20:27:58.389Z,17.58
2023-03-12T20:30:25.184Z,17.10
2023-03-12T20:32:51.564Z,17.25
2023-03-12T20:35:18.110Z,15.88
2023-03-12T20:37:45.331Z,17.60
2023-03-12T20:40:11.872Z,16.80
2023-03-12T20:42:38.303Z,17.40
2023-03-12T20:45:04.735Z,15.90
2023-03-12T20:47:31.471Z,16.98
2023-03-12T20:49:58.326Z,15.65
2023-03-12T20:52:24.766Z,15.82
2023-03-12T20:54:51.429Z,15.45
2023-03-12T20:57:17.973Z,15.02
2023-03-12T20:59:45.558Z,15.65
2023-03-12T21:02:11.868Z,14.75
2023-03-12T21:04:38.264Z,14.25
2023-03-12T21:07:04.912Z,13.88
2023-03-12T21:09:31.306Z,14.27
2023-03-12T21:11:57.692Z,14.23
2023-03-12T21:14:24.210Z,14.43
2023-03-12T21:16:50.626Z,13.48
2023-03-12T21:19:17.108Z,14.18
2023-03-12T21:21:43.471Z,13.13
2023-03-12T21:24:09.915Z,13.52
2023-03-12T21:26:36.340Z,14.05
2023-03-12T21:29:02.676Z,12.40
2023-03-12T21:31:29.515Z,13.07
2023-03-12T21:33:56.224Z,12.02
2023-03-12T21:36:22.755Z,13.05
2023-03-12T21:38:49.162Z,12.80
2023-03-12T21:41:16.011Z,13.13
2023-03-12T21:43:42.425Z,11.80
2023-03-12T21:46:08.746Z,12.32
2023-03-12T21:48:35.306Z,11.38
2023-03-12T21:51:01.804Z,12.70
2023-03-12T21:53:28.206Z,11.95
2023-03-12T21:55:54.854Z,11.13
2023-03-12T21:58:22.293Z,11.98
2023-03-12T22:00:48.722Z,11.88
2023-03-12T22:03:15.166Z,11.77
2023-03-12T22:05:41.538Z,11.65
2023-03-12T22:08:07.984Z,10.52
2023-03-12T22:10:34.413Z,10.90
2023-03-12T22:13:00.870Z,10.35
2023-03-12T22:15:27.260Z,10.98
2023-03-12T22:17:54.107Z,10.50
2023-03-12T22:20:20.618Z,11.43
2023-03-12T22:22:47.931Z,10.50
2023-03-12T22:25:14.209Z,10.20
2023-03-12T22:27:41.035Z,10.10
2023-03-12T22:30:07.418Z,11.25
2023-03-12T22:32:34.058Z,9.93
2023-03-12T22:35:00.459Z,10.55
2023-03-12T22:37:27.347Z,10.65
2023-03-12T22:39:53.633Z,9.95
2023-03-12T22:42:20.602Z,9.60
2023-03-12T22:44:47.837Z,9.60
2023-03-12T22:47:14.179Z,9.60
2023-03-12T22:49:41.004Z,9.45
2023-03-12T22:52:07.376Z,9.68
2023-03-12T22:54:33.888Z,9.40
2023-03-12T22:57:00.590Z,9.32
2023-03-12T22:59:27.596Z,9.10
2023-03-12T23:01:54.008Z,9.38
2023-03-12T23:04:20.518Z,8.40
2023-03-12T23:06:47.382Z,8.73
2023-03-12T23:09:13.952Z,8.73
2023-03-12T23:11:40.691Z,8.48
2023-03-12T23:14:07.664Z,8.93
2023-03-12T23:16:34.125Z,8.35
2023-03-12T23:19:00.689Z,9.07
2023-03-12T23:21:27.174Z,8.48
2023-03-12T23:23:53.691Z,8.18
2023-03-12T23:26:20.041Z,8.25
2023-03-12T23:28:46.397Z,8.43
2023-03-12T23:31:12.991Z,8.02
2023-03-12T23:33:39.757Z,8.32
2023-03-12T23:36:06.265Z,8.25
2023-03-12T23:38:33.946Z,7.43
2023-03-12T23:41:01.001Z,7.95
2023-03-12T23:43:27.491Z,7.88
2023-03-12T23:45:54.040Z,7.70
2023-03-12T23:48:20.401Z,8.07
2023-03-12T23:50:46.791Z,7.65
2023-03-12T23:53:13.108Z,7.88
2023-03-12T23:55:39.469Z,8.27
2023-03-12T23:58:06.098Z,7.28
